Time;durP1;ratioP1;P1;durP2;ratioP2;P2;SDS_P1;SDS_P2;PMS_P1;PMS_P2;Temp;Humidity;BMP_temperature;BMP_pressure;BME280_temperature;BME280_humidity;BME280_pressure;Samples;Min_cycle;Max_cycle;Signal;HPM_P1;HPM_P2
2023/03/05 00:01:10;;;;;;;16.10;12.00;;;;;;;;;;5098920;28;20197;-84
2023/03/05 00:03:38;;;;;;;21.13;12.97;;;;;;;;;;5103717;28;20262;-85
2023/03/05 00:06:05;;;;;;;16.43;12.97;;;;;;;;;;5090879;28;20234;-85
2023/03/05 00:08:33;;;;;;;17.37;13.40;;;;;;;;;;5091325;28;20225;-84
2023/03/05 00:11:01;;;;;;;23.77;15.07;;;;;;;;;;5093226;28;20286;-84
2023/03/05 00:13:29;;;;;;;19.77;14.70;;;;;;;;;;5109723;28;20208;-85
2023/03/05 00:15:57;;;;;;;20.73;15.10;;;;;;;;;;5104563;28;20248;-84
2023/03/05 00:18:25;;;;;;;16.93;12.57;;;;;;;;;;5094624;28;20686;-85
2023/03/05 00:20:52;;;;;;;15.53;11.40;;;;;;;;;;5091605;28;20230;-84
2023/03/05 00:23:19;;;;;;;14.97;10.20;;;;;;;;;;5091199;28;20251;-84
2023/03/05 00:25:47;;;;;;;14.33;9.70;;;;;;;;;;5098040;28;20263;-76
2023/03/05 00:28:14;;;;;;;13.63;8.73;;;;;;;;;;5115238;28;20276;-76
2023/03/05 00:30:42;;;;;;;15.60;11.30;;;;;;;;;;5114875;28;20636;-78
2023/03/05 00:33:11;;;;;;;15.57;10.30;;;;;;;;;;5115000;28;20251;-77
2023/03/05 00:35:42;;;;;;;13.60;9.67;;;;;;;;;;5114733;28;20237;-78
2023/03/05 00:38:09;;;;;;;15.97;10.00;;;;;;;;;;5115330;27;20222;-77
2023/03/05 00:40:37;;;;;;;14.03;9.07;;;;;;;;;;5114719;28;20202;-78
2023/03/05 00:43:05;;;;;;;13.50;9.17;;;;;;;;;;5114643;28;20594;-77
2023/03/05 00:45:32;;;;;;;14.80;10.20;;;;;;;;;;5106404;28;20326;-77
2023/03/05 00:47:59;;;;;;;17.33;10.23;;;;;;;;;;5094242;28;20255;-77
2023/03/05 00:50:28;;;;;;;16.73;10.00;;;;;;;;;;5093966;28;20215;-77
2023/03/05 00:52:55;;;;;;;14.80;9.63;;;;;;;;;;5094387;28;20294;-78
2023/03/05 00:55:22;;;;;;;14.83;9.40;;;;;;;;;;5094357;28;20285;-77
2023/03/05 00:57:50;;;;;;;14.73;9.60;;;;;;;;;;5094000;28;20244;-77
2023/03/05 01:00:17;;;;;;;12.37;9.10;;;;;;;;;;5094343;28;20289;-77
2023/03/05 01:02:44;;;;;;;14.57;10.57;;;;;;;;;;5093618;28;20227;-77
2023/03/05 01:05:12;;;;;;;17.10;9.77;;;;;;;;;;5093469;28;20718;-77
2023/03/05 01:07:41;;;;;;;17.37;9.77;;;;;;;;;;5094126;28;20294;-76
2023/03/05 01:10:09;;;;;;;15.20;9.23;;;;;;;;;;5093711;28;20201;-78
2023/03/05 01:12:36;;;;;;;14.23;8.80;;;;;;;;;;5103659;28;20656;-77
2023/03/05 01:15:03;;;;;;;15.10;9.43;;;;;;;;;;5114099;28;20307;-77
2023/03/05 01:17:30;;;;;;;14.43;9.10;;;;;;;;;;5114340;28;20233;-77
2023/03/05 01:19:57;;;;;;;14.30;10.20;;;;;;;;;;5113893;28;20255;-78
2023/03/05 01:22:25;;;;;;;17.03;10.17;;;;;;;;;;5114301;28;20300;-77
2023/03/05 01:24:53;;;;;;;16.83;9.77;;;;;;;;;;5114094;28;20229;-76
2023/03/05 01:27:20;;;;;;;17.60;10.00;;;;;;;;;;5114018;28;20198;-78
2023/03/05 01:29:47;;;;;;;17.83;11.40;;;;;;;;;;5113878;28;20194;-78
2023/03/05 01:32:15;;;;;;;16.03;10.00;;;;;;;;;;5114261;28;20236;-78
2023/03/05 01:34:42;;;;;;;13.97;9.77;;;;;;;;;;5113635;28;20641;-76
2023/03/05 01:37:09;;;;;;;15.50;9.93;;;;;;;;;;5113300;28;20277;-78
2023/03/05 01:39:36;;;;;;;17.43;11.17;;;;;;;;;;5112971;28;20229;-78
2023/03/05 01:42:05;;;;;;;16.53;10.23;;;;;;;;;;5113928;28;20297;-77
2023/03/05 01:44:33;;;;;;;20.77;11.37;;;;;;;;;;5113612;28;20317;-78
2023/03/05 01:47:00;;;;;;;15.33;10.57;;;;;;;;;;5113473;28;20715;-78
2023/03/05 01:49:28;;;;;;;17.47;12.50;;;;;;;;;;5113294;28;20221;-77
2023/03/05 01:51:59;;;;;;;15.57;10.80;;;;;;;;;;5113883;28;20282;-77
2023/03/05 01:54:30;;;;;;;14.73;10.90;;;;;;;;;;5105071;28;20294;-78
2023/03/05 01:57:00;;;;;;;15.57;10.50;;;;;;;;;;5092987;28;20194;-78
2023/03/05 01:59:28;;;;;;;14.97;9.97;;;;;;;;;;5093173;28;20218;-76
2023/03/05 02:01:58;;;;;;;14.40;10.27;;;;;;;;;;5092593;28;20285;-77
2023/03/05 02:04:29;;;;;;;16.23;10.33;;;;;;;;;;5092669;28;20771;-78
2023/03/05 02:06:56;;;;;;;15.10;9.77;;;;;;;;;;5093158;28;20214;-78
2023/03/05 02:09:23;;;;;;;15.10;10.50;;;;;;;;;;5092688;28;20238;-77
2023/03/05 02:11:51;;;;;;;15.53;10.60;;;;;;;;;;5096092;28;20203;-77
2023/03/05 02:14:19;;;;;;;18.83;11.50;;;;;;;;;;5113146;28;20604;-77
2023/03/05 02:16:48;;;;;;;16.37;10.90;;;;;;;;;;5112685;28;20190;-77
2023/03/05 02:19:15;;;;;;;17.70;10.53;;;;;;;;;;5113190;28;20284;-77
2023/03/05 02:21:45;;;;;;;18.07;11.73;;;;;;;;;;5113206;28;20285;-77
2023/03/05 02:24:13;;;;;;;15.87;11.03;;;;;;;;;;5112997;28;20321;-77
2023/03/05 02:26:41;;;;;;;19.17;11.60;;;;;;;;;;5112604;28;20297;-78
2023/03/05 02:29:09;;;;;;;16.50;11.30;;;;;;;;;;5112611;28;20200;-78
2023/03/05 02:31:37;;;;;;;18.13;11.33;;;;;;;;;;5112991;28;20196;-77
2023/03/05 02:34:05;;;;;;;17.23;11.20;;;;;;;;;;5112543;28;20194;-76
2023/03/05 02:36:32;;;;;;;17.33;11.20;;;;;;;;;;5112486;28;20229;-77
2023/03/05 02:39:01;;;;;;;16.60;11.23;;;;;;;;;;5112793;28;20291;-77
2023/03/05 02:41:28;;;;;;;18.83;11.63;;;;;;;;;;5112275;28;20734;-78
2023/03/05 02:43:55;;;;;;;20.13;11.47;;;;;;;;;;5112538;28;20309;-77
2023/03/05 02:46:22;;;;;;;16.77;11.30;;;;;;;;;;5111756;28;20283;-75
2023/03/05 02:48:49;;;;;;;15.57;11.03;;;;;;;;;;5112633;28;20274;-78
2023/03/05 02:51:17;;;;;;;18.50;11.57;;;;;;;;;;5112474;28;20244;-77
2023/03/05 02:53:44;;;;;;;15.00;10.80;;;;;;;;;;5112431;28;20616;-77
2023/03/05 02:56:12;;;;;;;15.23;10.87;;;;;;;;;;5112730;28;20285;-78
2023/03/05 02:58:40;;;;;;;17.13;11.50;;;;;;;;;;5112387;28;20261;-76
2023/03/05 03:01:08;;;;;;;17.33;11.00;;;;;;;;;;5111442;28;20198;-78
2023/03/05 03:03:36;;;;;;;17.20;11.97;;;;;;;;;;5112284;28;20193;-77
2023/03/05 03:06:04;;;;;;;15.37;10.97;;;;;;;;;;5112051;28;20315;-78
2023/03/05 03:08:31;;;;;;;16.27;11.17;;;;;;;;;;5111933;28;20254;-77
2023/03/05 03:11:04;;;;;;;17.87;11.50;;;;;;;;;;5112169;28;20217;-77
2023/03/05 03:13:32;;;;;;;16.27;11.37;;;;;;;;;;5112054;28;20292;-77
2023/03/05 03:16:02;;;;;;;16.47;11.17;;;;;;;;;;5111870;28;20297;-77
2023/03/05 03:18:30;;;;;;;15.47;10.80;;;;;;;;;;5112172;28;20217;-77
2023/03/05 03:20:57;;;;;;;17.83;11.13;;;;;;;;;;5111858;28;20872;-78
2023/03/05 03:23:24;;;;;;;16.87;10.97;;;;;;;;;;5111925;28;20236;-77
2023/03/05 03:25:51;;;;;;;18.83;11.13;;;;;;;;;;5111455;28;20225;-77
2023/03/05 03:28:18;;;;;;;16.43;10.80;;;;;;;;;;5108579;28;20277;-77
2023/03/05 03:30:47;;;;;;;18.27;10.87;;;;;;;;;;5101141;28;20230;-77
2023/03/05 03:33:16;;;;;;;17.57;10.63;;;;;;;;;;5091760;28;20286;-77
2023/03/05 03:35:44;;;;;;;16.07;10.47;;;;;;;;;;5091315;28;20259;-77
2023/03/05 03:38:12;;;;;;;14.40;10.73;;;;;;;;;;5091152;28;20222;-77
2023/03/05 03:40:39;;;;;;;16.83;10.60;;;;;;;;;;5091403;28;20198;-77
2023/03/05 03:43:07;;;;;;;15.77;10.23;;;;;;;;;;5091406;28;20237;-77
2023/03/05 03:45:34;;;;;;;16.93;10.90;;;;;;;;;;5091161;28;20270;-77
2023/03/05 03:48:03;;;;;;;16.07;11.07;;;;;;;;;;5091706;28;20283;-77
2023/03/05 03:50:30;;;;;;;17.80;11.40;;;;;;;;;;5091215;28;20293;-78
2023/03/05 03:52:57;;;;;;;16.80;11.60;;;;;;;;;;5090786;28;20241;-78
2023/03/05 03:55:24;;;;;;;14.50;11.20;;;;;;;;;;5091209;28;20297;-77
2023/03/05 03:57:51;;;;;;;16.80;10.97;;;;;;;;;;5091076;28;20691;-78
2023/03/05 04:00:19;;;;;;;17.33;11.60;;;;;;;;;;5091318;28;20273;-77
2023/03/05 04:02:46;;;;;;;18.73;11.03;;;;;;;;;;5094476;28;20289;-78
2023/03/05 04:05:15;;;;;;;16.17;11.70;;;;;;;;;;5095441;28;20265;-77
2023/03/05 04:07:44;;;;;;;16.33;11.00;;;;;;;;;;5095472;28;20290;-77
2023/03/05 04:10:12;;;;;;;17.63;10.70;;;;;;;;;;5094905;28;20229;-77
2023/03/05 04:12:41;;;;;;;16.67;11.40;;;;;;;;;;5104903;28;20658;-77
2023/03/05 04:15:09;;;;;;;17.53;11.40;;;;;;;;;;5115084;28;20572;-77
2023/03/05 04:17:36;;;;;;;13.97;10.53;;;;;;;;;;5115656;28;20608;-78
2023/03/05 04:20:05;;;;;;;17.57;11.23;;;;;;;;;;5115340;28;20224;-77
2023/03/05 04:22:34;;;;;;;17.47;11.57;;;;;;;;;;5115041;27;20751;-77
2023/03/05 04:25:05;;;;;;;14.50;10.80;;;;;;;;;;5115704;28;20375;-77
2023/03/05 04:27:32;;;;;;;17.03;11.50;;;;;;;;;;5114030;28;20209;-77
2023/03/05 04:29:59;;;;;;;15.73;10.83;;;;;;;;;;5098816;28;20223;-76
2023/03/05 04:32:28;;;;;;;15.33;10.57;;;;;;;;;;5094444;28;20661;-78
2023/03/05 04:34:55;;;;;;;17.50;11.70;;;;;;;;;;5094643;28;20197;-77
2023/03/05 04:37:23;;;;;;;16.30;11.00;;;;;;;;;;5094505;28;20289;-77
2023/03/05 04:39:51;;;;;;;15.67;10.97;;;;;;;;;;5107776;28;20292;-77
2023/03/05 04:42:19;;;;;;;15.60;10.70;;;;;;;;;;5114788;28;20658;-78
2023/03/05 04:44:47;;;;;;;17.43;11.60;;;;;;;;;;5114459;28;20237;-77
2023/03/05 04:47:14;;;;;;;16.17;11.23;;;;;;;;;;5114901;28;20293;-78
2023/03/05 04:49:41;;;;;;;17.07;10.90;;;;;;;;;;5115263;28;20284;-78
2023/03/05 04:52:08;;;;;;;15.03;10.93;;;;;;;;;;5114481;28;20297;-77
2023/03/05 04:54:35;;;;;;;15.00;10.60;;;;;;;;;;5107034;28;20736;-77
2023/03/05 04:57:04;;;;;;;15.13;10.60;;;;;;;;;;5094021;28;20654;-76
2023/03/05 04:59:31;;;;;;;16.47;10.50;;;;;;;;;;5094296;28;20232;-76
2023/03/05 05:01:59;;;;;;;16.50;10.53;;;;;;;;;;5094331;28;20236;-77
2023/03/05 05:04:26;;;;;;;17.13;10.47;;;;;;;;;;5094043;28;20225;-78
2023/03/05 05:06:55;;;;;;;13.27;9.97;;;;;;;;;;5094082;28;20288;-77
2023/03/05 05:09:23;;;;;;;13.53;10.40;;;;;;;;;;5094145;28;20213;-77
2023/03/05 05:11:50;;;;;;;16.53;11.23;;;;;;;;;;5096802;28;20280;-76
2023/03/05 05:14:19;;;;;;;15.10;10.23;;;;;;;;;;5114291;28;20281;-77
2023/03/05 05:16:46;;;;;;;14.53;10.43;;;;;;;;;;5113862;28;20197;-77
2023/03/05 05:19:13;;;;;;;15.23;10.20;;;;;;;;;;5114494;28;20198;-78
2023/03/05 05:21:41;;;;;;;15.83;10.67;;;;;;;;;;5114076;28;20194;-78
2023/03/05 05:24:08;;;;;;;14.80;10.40;;;;;;;;;;5114011;28;20673;-78
2023/03/05 05:26:35;;;;;;;15.87;11.00;;;;;;;;;;5113827;28;20641;-77
2023/03/05 05:29:03;;;;;;;15.60;10.90;;;;;;;;;;5114025;28;20673;-77
2023/03/05 05:31:31;;;;;;;14.20;10.60;;;;;;;;;;5113861;28;20197;-77
2023/03/05 05:33:58;;;;;;;14.40;9.93;;;;;;;;;;5113876;28;20221;-78
2023/03/05 05:36:26;;;;;;;14.23;10.37;;;;;;;;;;5114199;28;20222;-77
2023/03/05 05:38:53;;;;;;;14.80;9.93;;;;;;;;;;5113982;28;20280;-77
2023/03/05 05:41:20;;;;;;;12.93;9.57;;;;;;;;;;5113570;28;20291;-76
2023/03/05 05:43:48;;;;;;;12.77;9.90;;;;;;;;;;5113775;28;20290;-77
2023/03/05 05:46:16;;;;;;;14.23;10.47;;;;;;;;;;5113741;28;20268;-78
2023/03/05 05:48:45;;;;;;;14.20;9.80;;;;;;;;;;5113517;28;20318;-78
2023/03/05 05:51:13;;;;;;;15.53;9.60;;;;;;;;;;5113458;28;20685;-77
2023/03/05 05:53:41;;;;;;;15.90;9.70;;;;;;;;;;5113219;28;20194;-77
2023/03/05 05:56:09;;;;;;;13.23;9.60;;;;;;;;;;5113432;28;20281;-78
2023/03/05 05:58:37;;;;;;;13.27;10.10;;;;;;;;;;5113184;28;20289;-78
2023/03/05 06:01:12;;;;;;;14.03;10.17;;;;;;;;;;5113661;28;20284;-78
2023/03/05 06:03:39;;;;;;;11.50;9.27;;;;;;;;;;5113182;28;20962;-77
2023/03/05 06:06:10;;;;;;;13.10;9.93;;;;;;;;;;5113296;28;20336;-78
2023/03/05 06:08:37;;;;;;;12.13;9.27;;;;;;;;;;5113048;28;20205;-79
2023/03/05 06:11:04;;;;;;;13.57;9.93;;;;;;;;;;5112841;28;20221;-78
2023/03/05 06:13:31;;;;;;;15.83;10.40;;;;;;;;;;5112753;28;20293;-78
2023/03/05 06:15:59;;;;;;;13.93;9.87;;;;;;;;;;5113193;28;20203;-78
2023/03/05 06:18:26;;;;;;;13.30;9.73;;;;;;;;;;5113138;28;20282;-78
2023/03/05 06:20:57;;;;;;;14.47;9.60;;;;;;;;;;5112836;28;20299;-77
2023/03/05 06:23:26;;;;;;;14.27;9.60;;;;;;;;;;5112472;28;20299;-77
2023/03/05 06:25:53;;;;;;;13.43;10.13;;;;;;;;;;5112350;28;20256;-79
2023/03/05 06:28:21;;;;;;;15.27;10.17;;;;;;;;;;5112924;28;20281;-77
2023/03/05 06:30:48;;;;;;;12.43;10.00;;;;;;;;;;5112765;28;20284;-78
2023/03/05 06:33:16;;;;;;;13.03;9.60;;;;;;;;;;5112675;28;20228;-77
2023/03/05 06:35:43;;;;;;;13.53;9.33;;;;;;;;;;5113096;28;20217;-77
2023/03/05 06:38:10;;;;;;;11.90;9.53;;;;;;;;;;5112358;28;20301;-78
2023/03/05 06:40:40;;;;;;;14.30;9.97;;;;;;;;;;5112653;28;20275;-78
2023/03/05 06:43:07;;;;;;;12.93;9.00;;;;;;;;;;5112606;28;20296;-77
2023/03/05 06:45:34;;;;;;;13.97;9.90;;;;;;;;;;5112557;28;20721;-78
2023/03/05 06:48:02;;;;;;;12.40;8.80;;;;;;;;;;5112437;28;20652;-77
2023/03/05 06:50:29;;;;;;;13.33;9.43;;;;;;;;;;5112350;28;20220;-77
2023/03/05 06:52:56;;;;;;;11.43;9.20;;;;;;;;;;5112080;28;20225;-77
2023/03/05 06:55:23;;;;;;;15.10;9.83;;;;;;;;;;5112010;28;20724;-78
2023/03/05 06:57:52;;;;;;;14.63;9.40;;;;;;;;;;5112504;28;20614;-77
2023/03/05 07:00:19;;;;;;;14.20;9.13;;;;;;;;;;5112521;28;20225;-77
2023/03/05 07:02:46;;;;;;;15.87;9.47;;;;;;;;;;5112146;28;20197;-77
2023/03/05 07:05:13;;;;;;;17.93;9.37;;;;;;;;;;5111954;28;20323;-78
2023/03/05 07:07:41;;;;;;;13.63;8.50;;;;;;;;;;5112014;28;20288;-77
2023/03/05 07:10:09;;;;;;;12.60;9.00;;;;;;;;;;5111876;28;20696;-77
2023/03/05 07:12:37;;;;;;;14.53;9.50;;;;;;;;;;5112247;28;20201;-77
2023/03/05 07:15:06;;;;;;;11.87;9.20;;;;;;;;;;5112490;28;20193;-78
2023/03/05 07:17:34;;;;;;;13.23;9.50;;;;;;;;;;5111978;28;20223;-77
2023/03/05 07:20:01;;;;;;;10.07;8.97;;;;;;;;;;5111919;28;20665;-77
2023/03/05 07:22:28;;;;;;;12.47;9.40;;;;;;;;;;5111320;28;20282;-77
2023/03/05 07:24:55;;;;;;;13.63;9.47;;;;;;;;;;5111934;28;20264;-78
2023/03/05 07:27:24;;;;;;;18.50;9.40;;;;;;;;;;5111748;28;20192;-77
2023/03/05 07:29:51;;;;;;;13.40;9.27;;;;;;;;;;5111608;28;20209;-77
2023/03/05 07:32:20;;;;;;;11.53;8.97;;;;;;;;;;5112458;28;20219;-77
2023/03/05 07:34:47;;;;;;;12.17;9.13;;;;;;;;;;5111577;28;20293;-77
2023/03/05 07:37:14;;;;;;;14.30;9.43;;;;;;;;;;5111246;28;20700;-78
2023/03/05 07:39:41;;;;;;;14.13;9.97;;;;;;;;;;5112119;28;20720;-78
2023/03/05 07:42:08;;;;;;;14.47;9.07;;;;;;;;;;5111779;28;20220;-77
2023/03/05 07:44:37;;;;;;;12.23;9.20;;;;;;;;;;5111313;28;20363;-77
2023/03/05 07:47:05;;;;;;;13.57;9.83;;;;;;;;;;5111624;28;20225;-78
2023/03/05 07:49:34;;;;;;;12.27;9.43;;;;;;;;;;5111689;28;20285;-77
2023/03/05 07:52:01;;;;;;;12.03;9.50;;;;;;;;;;5110981;28;20205;-77
2023/03/05 07:54:28;;;;;;;12.67;8.97;;;;;;;;;;5111102;28;20251;-77
2023/03/05 07:56:55;;;;;;;12.30;9.57;;;;;;;;;;5111717;28;20290;-77
2023/03/05 07:59:23;;;;;;;14.27;9.70;;;;;;;;;;5111388;28;20213;-77
2023/03/05 08:01:50;;;;;;;13.83;9.83;;;;;;;;;;5111038;28;20230;-77
2023/03/05 08:04:17;;;;;;;13.17;9.83;;;;;;;;;;5111027;28;20197;-77
2023/03/05 08:06:45;;;;;;;14.23;9.73;;;;;;;;;;5111411;28;20230;-78
2023/03/05 08:09:13;;;;;;;11.43;9.33;;;;;;;;;;5111982;28;20288;-77
2023/03/05 08:11:40;;;;;;;11.80;9.43;;;;;;;;;;5111874;28;20241;-77
2023/03/05 08:14:07;;;;;;;14.17;11.23;;;;;;;;;;5111409;28;20284;-77
2023/03/05 08:16:35;;;;;;;17.27;11.63;;;;;;;;;;5109159;28;20281;-77
2023/03/05 08:19:02;;;;;;;17.37;11.60;;;;;;;;;;5111107;28;20229;-77
2023/03/05 08:21:32;;;;;;;17.33;11.20;;;;;;;;;;5111142;28;20303;-76
2023/03/05 08:24:01;;;;;;;15.27;10.23;;;;;;;;;;5110728;28;20199;-77
2023/03/05 08:26:31;;;;;;;13.73;10.40;;;;;;;;;;5110860;28;20649;-77
2023/03/05 08:29:29;;;;;;;13.53;10.23;;;;;;;;;;5111293;28;20229;-77
2023/03/05 08:32:03;;;;;;;13.50;10.60;;;;;;;;;;5110895;28;20191;-77
2023/03/05 08:34:30;;;;;;;13.13;10.40;;;;;;;;;;5110859;28;20253;-77
2023/03/05 08:37:07;;;;;;;15.50;10.97;;;;;;;;;;5111627;28;20227;-79
2023/03/05 08:39:38;;;;;;;14.83;10.67;;;;;;;;;;5111048;28;20199;-78
2023/03/05 08:42:12;;;;;;;14.80;11.63;;;;;;;;;;5119017;28;20210;-78
2023/03/05 08:44:45;;;;;;;17.23;11.70;;;;;;;;;;5118827;27;20236;-77
2023/03/05 08:47:13;;;;;;;17.27;13.07;;;;;;;;;;5111858;28;20733;-76
2023/03/05 08:49:40;;;;;;;17.20;13.30;;;;;;;;;;5114569;28;20199;-76
2023/03/05 08:52:09;;;;;;;15.23;11.43;;;;;;;;;;5113865;28;20206;-78
2023/03/05 08:55:02;;;;;;;14.70;11.27;;;;;;;;;;5113376;28;20647;-78
2023/03/05 08:57:31;;;;;;;16.13;12.20;;;;;;;;;;5114590;28;20213;-75
2023/03/05 08:59:58;;;;;;;15.00;11.77;;;;;;;;;;5101826;28;20251;-77
2023/03/05 09:02:25;;;;;;;15.63;12.00;;;;;;;;;;5093620;28;20198;-76
2023/03/05 09:04:53;;;;;;;14.57;10.60;;;;;;;;;;5094025;28;20212;-76
2023/03/05 09:07:20;;;;;;;14.23;10.93;;;;;;;;;;5111395;28;20686;-77
2023/03/05 09:09:47;;;;;;;13.57;9.63;;;;;;;;;;5103639;28;20765;-76
2023/03/05 09:12:27;;;;;;;13.20;10.67;;;;;;;;;;5100545;28;20661;-77
2023/03/05 09:15:10;;;;;;;14.27;10.60;;;;;;;;;;5114497;28;20211;-78
2023/03/05 09:17:42;;;;;;;11.53;10.00;;;;;;;;;;5113026;28;20196;-76
2023/03/05 09:20:28;;;;;;;11.13;9.03;;;;;;;;;;5093758;28;20197;-77
2023/03/05 09:22:55;;;;;;;11.97;9.47;;;;;;;;;;5094207;28;20284;-77
2023/03/05 09:25:22;;;;;;;11.73;9.13;;;;;;;;;;5093900;28;20280;-76
2023/03/05 09:27:50;;;;;;;12.27;9.57;;;;;;;;;;5102765;28;20789;-75
2023/03/05 09:30:19;;;;;;;13.23;9.10;;;;;;;;;;5113707;28;20297;-76
2023/03/05 09:32:46;;;;;;;10.33;8.53;;;;;;;;;;5113969;27;20215;-77
2023/03/05 09:35:14;;;;;;;12.73;9.30;;;;;;;;;;5113982;28;20283;-76
2023/03/05 09:37:41;;;;;;;10.57;8.60;;;;;;;;;;5114030;28;20204;-76
2023/03/05 09:40:09;;;;;;;9.80;8.60;;;;;;;;;;5113863;28;20239;-76
2023/03/05 09:42:46;;;;;;;12.37;8.67;;;;;;;;;;5113500;28;20288;-77
2023/03/05 09:45:17;;;;;;;10.33;9.17;;;;;;;;;;5113355;28;20319;-78
2023/03/05 09:47:55;;;;;;;12.57;9.10;;;;;;;;;;5113427;28;20313;-77
2023/03/05 09:50:35;;;;;;;11.80;8.87;;;;;;;;;;5114633;27;20208;-76
2023/03/05 09:53:05;;;;;;;9.37;8.37;;;;;;;;;;5113705;28;20235;-77
2023/03/05 09:55:35;;;;;;;10.13;8.63;;;;;;;;;;5113311;28;20194;-75
2023/03/05 09:58:04;;;;;;;10.17;8.10;;;;;;;;;;5113287;28;20201;-75
2023/03/05 10:00:35;;;;;;;9.27;7.43;;;;;;;;;;5112466;28;20234;-76
2023/03/05 10:03:06;;;;;;;9.23;7.67;;;;;;;;;;5112971;28;20223;-76
2023/03/05 10:05:44;;;;;;;7.80;6.77;;;;;;;;;;5113035;28;20231;-76
2023/03/05 10:08:13;;;;;;;10.70;7.73;;;;;;;;;;5117962;27;20327;-77
2023/03/05 10:10:41;;;;;;;8.80;7.10;;;;;;;;;;5107138;28;20209;-78
2023/03/05 10:13:14;;;;;;;8.57;6.70;;;;;;;;;;5101571;28;20232;-79
2023/03/05 10:15:50;;;;;;;7.50;6.70;;;;;;;;;;5106787;28;20255;-78
2023/03/05 10:18:23;;;;;;;7.73;6.70;;;;;;;;;;5105268;28;20204;-79
2023/03/05 10:20:58;;;;;;;7.63;6.23;;;;;;;;;;5104899;28;20205;-79
2023/03/05 10:23:30;;;;;;;7.37;6.50;;;;;;;;;;5112407;27;20672;-78
2023/03/05 10:26:00;;;;;;;8.80;6.40;;;;;;;;;;5111767;28;20668;-79
2023/03/05 10:28:33;;;;;;;30.93;19.90;;;;;;;;;;5111059;28;20240;-79
2023/03/05 10:31:13;;;;;;;8.73;6.80;;;;;;;;;;5112019;28;20254;-79
2023/03/05 10:33:49;;;;;;;80.17;41.73;;;;;;;;;;5112503;28;20193;-79
2023/03/05 10:36:28;;;;;;;20.30;12.93;;;;;;;;;;5109257;28;20231;-77
2023/03/05 10:39:22;;;;;;;103.53;56.23;;;;;;;;;;5112815;28;20246;-79
2023/03/05 10:42:01;;;;;;;418.73;225.37;;;;;;;;;;5049940;28;20728;-79
2023/03/05 10:44:33;;;;;;;514.63;334.13;;;;;;;;;;5048744;28;20196;-77
2023/03/05 10:47:02;;;;;;;289.90;172.57;;;;;;;;;;5046650;28;20319;-78
2023/03/05 10:49:31;;;;;;;181.90;113.90;;;;;;;;;;5049072;28;20708;-79
2023/03/05 10:52:01;;;;;;;48.13;36.13;;;;;;;;;;5049275;28;20230;-77
2023/03/05 10:54:29;;;;;;;11.80;10.60;;;;;;;;;;5049156;28;20306;-77
2023/03/05 10:57:03;;;;;;;9.87;7.33;;;;;;;;;;5047013;28;20202;-77
2023/03/05 10:59:30;;;;;;;7.93;6.60;;;;;;;;;;5068254;28;20309;-79
2023/03/05 11:02:07;;;;;;;7.03;6.27;;;;;;;;;;5069063;28;20757;-80
2023/03/05 11:04:36;;;;;;;65.07;42.07;;;;;;;;;;5029221;28;20195;-78
2023/03/05 11:07:06;;;;;;;11.03;7.63;;;;;;;;;;5029190;28;20718;-78
2023/03/05 11:09:34;;;;;;;13.77;11.63;;;;;;;;;;5041723;28;20199;-77
2023/03/05 11:12:11;;;;;;;20.50;15.23;;;;;;;;;;5048534;28;20282;-77
2023/03/05 11:14:39;;;;;;;17.80;13.47;;;;;;;;;;5048730;28;20294;-78
2023/03/05 11:17:21;;;;;;;26.43;18.80;;;;;;;;;;5067284;28;20681;-79
2023/03/05 11:19:50;;;;;;;23.27;18.20;;;;;;;;;;5111442;28;20247;-79
2023/03/05 11:22:19;;;;;;;8.30;6.90;;;;;;;;;;5100483;28;20661;-79
2023/03/05 11:25:03;;;;;;;34.10;25.93;;;;;;;;;;5101575;28;20205;-79
2023/03/05 11:27:32;;;;;;;6.90;6.03;;;;;;;;;;5108778;28;20315;-78
2023/03/05 11:30:00;;;;;;;8.77;7.87;;;;;;;;;;5093407;28;20222;-79
2023/03/05 11:32:28;;;;;;;15.33;12.67;;;;;;;;;;5110269;27;20292;-78
2023/03/05 11:34:57;;;;;;;22.70;17.93;;;;;;;;;;5110861;27;20232;-79
2023/03/05 11:37:25;;;;;;;47.70;31.67;;;;;;;;;;5108201;28;20205;-79
2023/03/05 11:40:07;;;;;;;12.57;9.80;;;;;;;;;;5110674;28;20254;-77
2023/03/05 11:42:34;;;;;;;52.60;36.47;;;;;;;;;;5098180;28;20288;-78
2023/03/05 11:45:02;;;;;;;72.43;52.07;;;;;;;;;;5100673;28;20305;-78
2023/03/05 11:47:34;;;;;;;11.60;9.83;;;;;;;;;;5091230;28;20651;-78
2023/03/05 11:50:05;;;;;;;11.87;9.90;;;;;;;;;;5093912;28;20289;-76
2023/03/05 11:52:36;;;;;;;18.20;16.27;;;;;;;;;;5091543;28;20244;-77
2023/03/05 11:55:05;;;;;;;7.13;6.43;;;;;;;;;;5101873;28;20273;-76
2023/03/05 11:57:35;;;;;;;56.87;42.73;;;;;;;;;;5106524;28;20263;-76
2023/03/05 12:00:09;;;;;;;7.93;6.87;;;;;;;;;;5096725;28;20294;-77
2023/03/05 12:02:38;;;;;;;28.67;21.63;;;;;;;;;;5099796;28;20561;-77
2023/03/05 12:05:08;;;;;;;29.37;20.97;;;;;;;;;;5100306;28;20289;-77
2023/03/05 12:07:37;;;;;;;14.73;10.53;;;;;;;;;;5100100;28;20228;-77
2023/03/05 12:10:04;;;;;;;50.97;35.10;;;;;;;;;;5110697;28;20288;-74
2023/03/05 12:12:36;;;;;;;28.27;21.97;;;;;;;;;;5110978;28;20207;-77
2023/03/05 12:15:12;;;;;;;14.23;11.57;;;;;;;;;;5110905;28;20194;-77
2023/03/05 12:17:41;;;;;;;10.60;7.57;;;;;;;;;;5111589;28;20220;-77
2023/03/05 12:20:14;;;;;;;9.90;6.40;;;;;;;;;;5111073;28;20255;-77
2023/03/05 12:22:42;;;;;;;9.53;7.30;;;;;;;;;;5116253;27;20299;-78
2023/03/05 12:25:27;;;;;;;14.80;10.97;;;;;;;;;;5103470;28;20287;-77
2023/03/05 12:27:54;;;;;;;17.80;14.87;;;;;;;;;;5113687;28;20324;-78
2023/03/05 12:30:55;;;;;;;14.10;12.70;;;;;;;;;;5112445;28;20702;-78
2023/03/05 12:33:35;;;;;;;11.87;9.27;;;;;;;;;;5106148;28;20202;-77
2023/03/05 12:36:33;;;;;;;13.93;10.77;;;;;;;;;;5111177;28;20735;-77
2023/03/05 12:39:01;;;;;;;9.30;7.00;;;;;;;;;;5075049;28;20293;-76
2023/03/05 12:41:38;;;;;;;12.73;9.70;;;;;;;;;;5075543;28;20237;-77
2023/03/05 12:44:18;;;;;;;35.03;25.00;;;;;;;;;;5074148;28;21413;-75
2023/03/05 12:46:47;;;;;;;13.53;10.13;;;;;;;;;;5079477;28;20228;-78
2023/03/05 12:49:30;;;;;;;10.40;9.30;;;;;;;;;;5086244;28;20195;-79
2023/03/05 12:51:59;;;;;;;16.67;12.77;;;;;;;;;;5073356;28;20293;-77
2023/03/05 12:54:31;;;;;;;11.40;10.03;;;;;;;;;;5082353;28;20206;-77
2023/03/05 12:57:00;;;;;;;10.60;8.73;;;;;;;;;;5081248;28;20285;-77
2023/03/05 12:59:30;;;;;;;9.80;7.23;;;;;;;;;;5073220;28;20202;-77
2023/03/05 13:01:59;;;;;;;11.53;10.07;;;;;;;;;;5073711;28;20650;-76
2023/03/05 13:04:29;;;;;;;9.17;6.60;;;;;;;;;;5091288;28;20280;-77
2023/03/05 13:07:00;;;;;;;8.37;7.07;;;;;;;;;;5091831;28;20388;-77
2023/03/05 13:09:30;;;;;;;10.07;7.60;;;;;;;;;;5090358;28;20300;-76
2023/03/05 13:11:58;;;;;;;9.87;7.73;;;;;;;;;;5071686;28;20205;-77
2023/03/05 13:14:29;;;;;;;10.50;7.63;;;;;;;;;;5106409;27;20704;-77
2023/03/05 13:16:56;;;;;;;10.73;7.90;;;;;;;;;;5114694;28;20737;-77
2023/03/05 13:19:23;;;;;;;18.50;13.90;;;;;;;;;;5113732;28;20288;-75
2023/03/05 13:21:58;;;;;;;15.07;11.60;;;;;;;;;;5114363;28;20233;-76
2023/03/05 13:24:25;;;;;;;9.77;8.37;;;;;;;;;;5113584;28;20565;-76
2023/03/05 13:26:52;;;;;;;11.90;8.13;;;;;;;;;;5114399;28;20312;-77
2023/03/05 13:29:21;;;;;;;10.33;7.57;;;;;;;;;;5114248;28;20287;-74
2023/03/05 13:31:50;;;;;;;9.97;8.37;;;;;;;;;;5109269;27;20222;-76
2023/03/05 13:34:19;;;;;;;11.87;8.10;;;;;;;;;;5101032;28;20641;-76
2023/03/05 13:36:47;;;;;;;11.67;8.53;;;;;;;;;;5113412;28;20243;-79
2023/03/05 13:39:21;;;;;;;8.77;7.27;;;;;;;;;;5112923;28;20203;-74
2023/03/05 13:41:56;;;;;;;10.23;7.63;;;;;;;;;;5113683;28;20197;-76
2023/03/05 13:44:25;;;;;;;8.60;6.53;;;;;;;;;;5112426;28;20276;-79
2023/03/05 13:46:52;;;;;;;8.73;6.77;;;;;;;;;;5111481;28;20237;-76
2023/03/05 13:49:21;;;;;;;9.50;8.27;;;;;;;;;;5106947;27;20322;-77
2023/03/05 13:51:50;;;;;;;9.63;8.03;;;;;;;;;;5096209;28;20297;-79
2023/03/05 13:54:17;;;;;;;7.27;5.63;;;;;;;;;;5116221;28;20250;-77
2023/03/05 13:56:52;;;;;;;8.33;7.10;;;;;;;;;;5112984;28;20541;-77
2023/03/05 13:59:20;;;;;;;8.00;6.03;;;;;;;;;;5113049;28;20224;-76
2023/03/05 14:01:49;;;;;;;6.87;5.70;;;;;;;;;;5113152;28;20245;-76
2023/03/05 14:04:21;;;;;;;8.43;6.63;;;;;;;;;;5103887;27;20283;-76
2023/03/05 14:06:49;;;;;;;8.57;6.40;;;;;;;;;;5101233;28;20671;-77
2023/03/05 14:09:20;;;;;;;10.70;9.60;;;;;;;;;;5112678;28;20312;-76
2023/03/05 14:12:09;;;;;;;7.80;6.23;;;;;;;;;;5111576;27;20729;-77
2023/03/05 14:14:37;;;;;;;9.30;8.33;;;;;;;;;;5101928;28;20286;-76
2023/03/05 14:17:33;;;;;;;11.50;10.30;;;;;;;;;;5111764;28;20666;-78
2023/03/05 14:20:08;;;;;;;8.77;6.87;;;;;;;;;;5106035;28;20240;-76
2023/03/05 14:22:35;;;;;;;8.00;6.07;;;;;;;;;;5124020;27;20972;-76
2023/03/05 14:25:03;;;;;;;7.53;6.07;;;;;;;;;;5129154;27;20201;-76
2023/03/05 14:27:32;;;;;;;8.13;5.83;;;;;;;;;;5112748;28;20320;-76
2023/03/05 14:29:59;;;;;;;8.20;6.10;;;;;;;;;;5108675;28;20225;-76
2023/03/05 14:32:31;;;;;;;11.27;8.37;;;;;;;;;;5091485;28;20291;-76
2023/03/05 14:35:00;;;;;;;9.57;7.50;;;;;;;;;;5106416;28;20258;-76
2023/03/05 14:37:29;;;;;;;12.80;10.83;;;;;;;;;;5091618;28;20231;-76